createdAt,value
2019-05-16T00:01:20.222Z,1.65
2019-05-16T00:04:02.835Z,2.65
2019-05-16T00:06:44.565Z,1.22
2019-05-16T00:09:25.243Z,5.20
2019-05-16T00:12:08.574Z,2.98
2019-05-16T00:14:49.103Z,3.27
2019-05-16T00:17:30.035Z,4.30
2019-05-16T00:20:11.220Z,0.98
2019-05-16T00:22:54.616Z,3.60
2019-05-16T00:25:35.482Z,2.85
2019-05-16T00:28:18.040Z,2.10
2019-05-16T00:30:59.306Z,2.62
2019-05-16T00:33:40.057Z,2.65
2019-05-16T00:36:21.620Z,4.35
2019-05-16T00:39:04.782Z,1.12
2019-05-16T00:41:47.770Z,1.30
2019-05-16T00:44:28.159Z,2.33
2019-05-16T00:47:08.933Z,2.22
2019-05-16T00:49:49.324Z,2.15
2019-05-16T00:52:30.259Z,1.15
2019-05-16T00:55:11.055Z,1.55
2019-05-16T00:57:51.983Z,1.52
2019-05-16T01:00:33.047Z,4.65
2019-05-16T01:03:13.447Z,2.67
2019-05-16T01:05:54.038Z,6.62
2019-05-16T01:08:35.059Z,2.83
2019-05-16T01:11:18.344Z,1.70
2019-05-16T01:13:48.510Z,0.98
2019-05-16T01:16:38.129Z,1.87
2019-05-16T01:19:27.753Z,2.60
2019-05-16T01:21:58.811Z,1.30
2019-05-16T01:24:46.108Z,6.87
2019-05-16T01:27:34.112Z,2.27
2019-05-16T01:30:22.151Z,2.00
2019-05-16T01:33:03.200Z,2.30
2019-05-16T01:35:51.523Z,3.95
2019-05-16T01:38:32.223Z,1.60
2019-05-16T01:41:12.809Z,2.25
2019-05-16T01:43:54.049Z,1.62
2019-05-16T01:49:18.743Z,2.62
2019-05-16T01:52:00.219Z,3.35
2019-05-16T01:54:41.060Z,3.55
2019-05-16T01:57:21.952Z,1.90
2019-05-16T02:00:03.059Z,1.82
2019-05-16T02:02:44.275Z,2.80
2019-05-16T02:05:25.098Z,3.02
2019-05-16T02:08:05.578Z,2.87
2019-05-16T02:10:47.903Z,3.10
2019-05-16T02:13:29.453Z,1.95
2019-05-16T02:16:09.995Z,2.70
2019-05-16T02:18:38.717Z,4.30
2019-05-16T02:21:28.648Z,3.50
2019-05-16T02:24:18.285Z,3.12
2019-05-16T02:27:06.302Z,1.70
2019-05-16T02:29:55.411Z,1.30
2019-05-16T02:32:43.419Z,1.98
2019-05-16T02:35:23.913Z,2.55
2019-05-16T02:38:04.407Z,1.80
2019-05-16T02:40:45.233Z,1.92
2019-05-16T02:43:26.756Z,1.92
2019-05-16T02:46:07.612Z,1.02
2019-05-16T02:48:51.556Z,2.47
2019-05-16T02:51:21.204Z,2.37
2019-05-16T02:54:11.084Z,5.28
2019-05-16T02:57:01.192Z,1.25
2019-05-16T02:59:50.719Z,2.02
2019-05-16T03:02:41.584Z,2.02
2019-05-16T03:05:27.581Z,2.98
2019-05-16T03:08:15.665Z,1.35
2019-05-16T03:11:03.687Z,2.50
2019-05-16T03:13:51.687Z,1.92
2019-05-16T03:16:41.894Z,1.15
2019-05-16T03:19:31.112Z,3.42
2019-05-16T03:25:26.341Z,1.72
2019-05-16T03:28:14.358Z,1.40
2019-05-16T03:31:05.221Z,5.33
2019-05-16T03:33:59.666Z,1.65
2019-05-16T03:36:35.066Z,3.35
2019-05-16T03:39:16.262Z,3.05
2019-05-16T03:41:57.132Z,1.95
2019-05-16T03:44:40.894Z,1.17
2019-05-16T03:47:21.949Z,1.22
2019-05-16T03:49:51.709Z,2.77
2019-05-16T03:52:43.539Z,2.58
2019-05-16T03:55:32.561Z,2.12
2019-05-16T04:01:11.674Z,5.22
2019-05-16T04:04:01.781Z,1.45
2019-05-16T04:06:50.736Z,1.00
2019-05-16T04:09:41.188Z,3.40
2019-05-16T04:12:30.821Z,3.08
2019-05-16T04:15:21.427Z,5.58
2019-05-16T04:18:11.197Z,2.15
2019-05-16T04:21:01.024Z,2.47
2019-05-16T04:23:50.630Z,1.77
2019-05-16T04:26:40.934Z,2.55
2019-05-16T04:29:31.276Z,3.58
2019-05-16T04:32:20.546Z,3.52
2019-05-16T04:35:02.546Z,2.60
2019-05-16T04:37:42.784Z,2.15
2019-05-16T04:40:23.760Z,4.03
2019-05-16T04:43:04.739Z,3.70
2019-05-16T04:45:45.786Z,2.92
2019-05-16T04:48:26.595Z,1.62
2019-05-16T05:00:03.240Z,2.65
2019-05-16T05:24:22.228Z,2.85
2019-05-16T05:26:50.965Z,1.87
2019-05-16T05:29:20.187Z,3.10
2019-05-16T05:31:54.899Z,2.10
2019-05-16T05:34:19.962Z,2.83
2019-05-16T05:36:51.135Z,1.75
2019-05-16T05:39:20.052Z,3.25
2019-05-16T05:41:50.428Z,2.40
2019-05-16T05:44:20.338Z,2.58
2019-05-16T05:46:51.146Z,2.83
2019-05-16T05:49:20.458Z,3.55
2019-05-16T05:51:50.083Z,8.80
2019-05-16T05:54:20.354Z,9.30
2019-05-16T05:56:50.226Z,4.10
2019-05-16T05:59:20.121Z,2.62
2019-05-16T06:01:51.762Z,2.77
2019-05-16T06:04:19.876Z,3.15
2019-05-16T06:06:50.358Z,2.67
2019-05-16T06:09:28.296Z,4.20
2019-05-16T06:11:50.273Z,4.92
2019-05-16T06:14:21.220Z,1.42
2019-05-16T06:16:50.843Z,3.72
2019-05-16T06:19:20.390Z,6.62
2019-05-16T06:21:50.346Z,11.75
2019-05-16T06:24:20.031Z,4.70
2019-05-16T06:26:50.448Z,2.85
2019-05-16T06:29:20.395Z,2.00
2019-05-16T06:31:49.724Z,2.52
2019-05-16T06:34:20.774Z,5.20
2019-05-16T06:36:50.980Z,1.95
2019-05-16T06:39:20.126Z,8.48
2019-05-16T06:41:50.980Z,5.80
2019-05-16T06:44:20.302Z,2.08
2019-05-16T06:47:00.581Z,7.28
2019-05-16T06:49:20.473Z,3.22
2019-05-16T06:51:51.637Z,2.55
2019-05-16T06:54:20.820Z,7.42
2019-05-16T06:56:50.977Z,4.00
2019-05-16T06:59:20.332Z,5.20
2019-05-16T07:01:50.068Z,3.98
2019-05-16T07:04:20.032Z,1.70
2019-05-16T07:06:58.657Z,4.67
2019-05-16T07:09:20.649Z,5.47
2019-05-16T07:11:50.454Z,3.25
2019-05-16T07:14:22.914Z,8.15
2019-05-16T07:16:49.997Z,5.53
2019-05-16T07:19:20.761Z,3.75
2019-05-16T07:21:50.865Z,6.55
2019-05-16T07:24:19.916Z,5.67
2019-05-16T07:26:50.065Z,2.33
2019-05-16T07:29:20.215Z,6.12
2019-05-16T07:31:52.034Z,3.75
2019-05-16T07:34:20.638Z,8.23
2019-05-16T07:36:50.304Z,2.20
2019-05-16T07:39:19.917Z,3.30
2019-05-16T07:41:51.019Z,3.75
2019-05-16T07:44:20.846Z,4.12
2019-05-16T07:46:51.586Z,1.92
2019-05-16T07:49:20.575Z,2.42
2019-05-16T07:51:49.811Z,3.90
2019-05-16T07:54:21.169Z,3.98
2019-05-16T07:56:57.156Z,2.58
2019-05-16T07:59:20.433Z,3.45
2019-05-16T08:01:53.672Z,2.50
2019-05-16T08:04:20.139Z,7.58
2019-05-16T08:06:50.261Z,3.85
2019-05-16T08:09:21.126Z,3.85
2019-05-16T08:11:50.149Z,3.40
2019-05-16T08:14:21.294Z,4.55
2019-05-16T08:16:50.277Z,6.25
2019-05-16T08:19:21.136Z,4.12
2019-05-16T08:21:50.596Z,5.62
2019-05-16T08:24:20.524Z,4.30
2019-05-16T08:26:51.382Z,5.95
2019-05-16T08:29:22.015Z,3.37
2019-05-16T08:31:52.719Z,5.42
2019-05-16T08:34:21.103Z,4.60
2019-05-16T08:36:51.878Z,3.90
2019-05-16T08:39:21.455Z,5.37
2019-05-16T08:44:21.670Z,2.75
2019-05-16T08:46:57.103Z,6.92
2019-05-16T08:49:22.320Z,4.35
2019-05-16T08:54:21.790Z,4.30
2019-05-16T08:56:51.161Z,8.00
2019-05-16T08:59:21.539Z,4.85
2019-05-16T09:01:57.409Z,3.10
2019-05-16T09:06:52.598Z,3.60
2019-05-16T09:09:36.548Z,2.87
2019-05-16T09:10:19.012Z,3.72
2019-05-16T09:11:52.347Z,3.45
2019-05-16T09:14:21.790Z,3.62
2019-05-16T09:16:50.649Z,6.90
2019-05-16T09:18:30.746Z,3.25
2019-05-16T09:18:38.248Z,3.00
2019-05-16T09:19:19.441Z,9.60
2019-05-16T09:21:48.978Z,5.67
2019-05-16T09:24:18.166Z,2.33
2019-05-16T09:26:47.624Z,2.15
2019-05-16T09:29:16.913Z,3.55
2019-05-16T09:32:07.353Z,5.42
2019-05-16T09:34:17.560Z,8.10
2019-05-16T09:36:48.176Z,2.47
2019-05-16T09:39:17.495Z,4.65
2019-05-16T09:41:50.515Z,2.77
2019-05-16T09:44:18.311Z,6.80
2019-05-16T09:46:47.385Z,3.15
2019-05-16T09:49:23.906Z,4.67
2019-05-16T09:51:46.707Z,6.33
2019-05-16T09:54:17.910Z,4.20
2019-05-16T09:56:46.851Z,2.90
2019-05-16T09:59:17.469Z,2.05
2019-05-16T10:01:47.838Z,6.55
2019-05-16T10:04:17.580Z,6.40
2019-05-16T10:06:46.818Z,3.27
2019-05-16T10:09:17.555Z,3.47
2019-05-16T10:11:50.859Z,4.40
2019-05-16T10:14:17.323Z,5.42
2019-05-16T10:16:47.751Z,4.47
2019-05-16T10:19:16.952Z,2.35
2019-05-16T10:21:45.955Z,5.03
2019-05-16T10:24:15.015Z,7.05
2019-05-16T10:26:43.930Z,12.30
2019-05-16T10:29:12.792Z,3.87
2019-05-16T10:31:49.313Z,20.48
2019-05-16T10:34:12.131Z,5.20
2019-05-16T10:36:41.154Z,5.35
2019-05-16T10:39:09.919Z,17.37
2019-05-16T10:41:38.883Z,4.55
2019-05-16T10:44:07.775Z,4.45
2019-05-16T10:46:37.711Z,5.40
2019-05-16T10:49:06.814Z,7.87
2019-05-16T10:51:37.763Z,4.17
2019-05-16T10:54:13.562Z,3.80
2019-05-16T10:56:40.135Z,6.87
2019-05-16T10:59:46.693Z,3.25
2019-05-16T11:01:37.585Z,5.80
2019-05-16T11:04:07.538Z,5.25
2019-05-16T11:06:37.211Z,5.15
2019-05-16T11:09:07.022Z,7.65
2019-05-16T11:11:36.802Z,9.93
2019-05-16T11:14:08.975Z,3.75
2019-05-16T11:16:36.784Z,4.78
2019-05-16T11:19:17.465Z,8.83
2019-05-16T11:21:37.683Z,2.62
2019-05-16T11:24:28.977Z,3.45
2019-05-16T11:27:15.952Z,6.22
2019-05-16T11:30:04.534Z,4.45
2019-05-16T11:32:52.638Z,4.30
2019-05-16T11:35:40.934Z,3.12
2019-05-16T11:41:07.222Z,11.90
2019-05-16T11:43:47.481Z,10.13
2019-05-16T11:46:28.380Z,9.23
2019-05-16T11:49:08.921Z,3.22
2019-05-16T11:51:50.312Z,4.12
2019-05-16T11:54:31.009Z,7.47
2019-05-16T11:57:12.335Z,3.65
2019-05-16T11:59:53.136Z,5.83
2019-05-16T12:02:33.724Z,5.45
2019-05-16T12:05:14.249Z,4.80
2019-05-16T12:07:57.330Z,5.97
2019-05-16T12:10:40.767Z,3.37
2019-05-16T12:13:24.259Z,4.05
2019-05-16T12:15:59.603Z,11.48
2019-05-16T12:18:47.664Z,4.95
2019-05-16T12:21:35.648Z,6.28
2019-05-16T12:24:33.518Z,5.80
2019-05-16T12:27:13.623Z,4.80
2019-05-16T12:30:01.922Z,5.70
2019-05-16T12:32:51.897Z,5.20
2019-05-16T12:35:40.121Z,3.52
2019-05-16T12:38:28.150Z,8.93
2019-05-16T12:41:09.465Z,2.80
2019-05-16T12:43:53.607Z,7.03
2019-05-16T12:46:33.132Z,10.03
2019-05-16T12:49:14.413Z,5.55
2019-05-16T12:51:56.948Z,7.25
2019-05-16T12:54:37.664Z,5.17
2019-05-16T12:57:18.833Z,5.08
2019-05-16T13:00:00.257Z,3.60
2019-05-16T13:02:41.199Z,5.60
2019-05-16T13:05:22.182Z,7.30
2019-05-16T13:10:47.030Z,3.85
2019-05-16T13:13:28.027Z,3.33
2019-05-16T13:15:56.860Z,8.55
2019-05-16T13:18:47.355Z,4.30
2019-05-16T13:21:34.841Z,5.03
2019-05-16T13:24:22.895Z,7.10
2019-05-16T13:27:11.036Z,5.97
2019-05-16T13:29:59.051Z,4.40
2019-05-16T13:32:47.261Z,2.37
2019-05-16T13:35:37.091Z,4.62
2019-05-16T13:38:27.979Z,8.03
2019-05-16T13:41:18.000Z,4.70
2019-05-16T13:43:45.862Z,9.45
2019-05-16T13:46:34.399Z,3.40
2019-05-16T13:49:22.599Z,3.60
2019-05-16T13:52:10.641Z,4.15
2019-05-16T13:54:58.647Z,4.30
2019-05-16T14:00:41.666Z,3.55
2019-05-16T14:03:29.896Z,6.75
2019-05-16T14:06:18.692Z,6.80
2019-05-16T14:09:08.061Z,7.85
2019-05-16T14:11:56.481Z,4.90
2019-05-16T14:14:47.852Z,2.67
2019-05-16T14:17:37.040Z,3.20
2019-05-16T14:20:25.708Z,3.65
2019-05-16T14:23:13.706Z,6.45
2019-05-16T14:26:11.868Z,5.17
2019-05-16T14:28:59.934Z,4.83
2019-05-16T14:31:49.543Z,6.78
2019-05-16T14:34:38.393Z,8.00
2019-05-16T14:37:27.655Z,4.00
2019-05-16T14:40:08.633Z,10.05
2019-05-16T14:42:49.500Z,10.53
2019-05-16T14:45:29.096Z,3.52
2019-05-16T14:48:18.900Z,4.45
2019-05-16T14:54:01.284Z,6.72
2019-05-16T14:56:49.401Z,5.12
2019-05-16T14:59:37.420Z,3.90
2019-05-16T15:02:27.596Z,3.95
2019-05-16T15:05:15.386Z,5.60
2019-05-16T15:08:03.514Z,4.22
2019-05-16T15:10:51.577Z,5.22
2019-05-16T15:13:39.831Z,4.67
2019-05-16T15:16:28.008Z,5.90
2019-05-16T15:19:17.540Z,6.83
2019-05-16T15:22:07.828Z,4.12
2019-05-16T15:24:59.071Z,4.47
2019-05-16T15:27:47.603Z,7.55
2019-05-16T15:30:38.993Z,4.87
2019-05-16T15:33:27.179Z,5.80
2019-05-16T15:36:16.735Z,8.53
2019-05-16T15:39:08.118Z,4.97
2019-05-16T15:41:48.479Z,5.72
2019-05-16T15:44:29.622Z,8.33
2019-05-16T15:47:10.609Z,4.47
2019-05-16T15:49:52.081Z,5.58
2019-05-16T15:52:32.815Z,5.22
2019-05-16T15:55:13.900Z,8.63
2019-05-16T15:57:54.363Z,5.55
2019-05-16T16:00:37.591Z,11.53
2019-05-16T16:03:17.687Z,5.28
2019-05-16T16:05:58.218Z,8.10
2019-05-16T16:08:39.786Z,5.45
2019-05-16T16:11:20.168Z,9.98
2019-05-16T16:14:01.010Z,7.37
2019-05-16T16:16:29.843Z,7.83
2019-05-16T16:19:17.881Z,5.53
2019-05-16T16:21:47.277Z,5.75
2019-05-16T16:27:36.260Z,10.82
2019-05-16T16:30:24.623Z,5.15
2019-05-16T16:33:22.596Z,8.53
2019-05-16T16:36:02.979Z,6.15
2019-05-16T16:38:51.204Z,11.45
2019-05-16T16:41:31.707Z,8.75
2019-05-16T16:44:12.324Z,6.78
2019-05-16T16:46:52.968Z,6.62
2019-05-16T16:52:17.567Z,5.83
2019-05-16T16:54:58.113Z,5.62
2019-05-16T16:57:39.368Z,6.47
2019-05-16T17:00:22.859Z,10.78
2019-05-16T17:03:09.271Z,8.68
2019-05-16T17:05:46.796Z,9.93
2019-05-16T17:08:27.463Z,8.68
2019-05-16T17:11:08.243Z,11.43
2019-05-16T17:13:49.090Z,11.10
2019-05-16T17:16:30.029Z,8.23
2019-05-16T17:19:11.245Z,11.25
2019-05-16T17:22:06.382Z,6.40
2019-05-16T17:24:36.501Z,7.30
2019-05-16T17:27:17.099Z,14.95
2019-05-16T17:30:00.719Z,8.03
2019-05-16T17:32:41.204Z,7.30
2019-05-16T17:35:22.303Z,7.35
2019-05-16T17:38:03.343Z,8.45
2019-05-16T17:40:46.444Z,8.73
2019-05-16T17:43:27.181Z,14.10
2019-05-16T17:46:37.189Z,8.83
2019-05-16T17:49:09.754Z,8.70
2019-05-16T17:51:50.669Z,8.78
2019-05-16T17:54:31.424Z,13.05
2019-05-16T17:59:57.436Z,6.72
2019-05-16T18:02:37.887Z,8.58
2019-05-16T18:05:19.016Z,10.68
2019-05-16T18:07:59.886Z,7.35
2019-05-16T18:10:40.577Z,9.98
2019-05-16T18:13:21.588Z,9.65
2019-05-16T18:16:02.736Z,8.98
2019-05-16T18:18:43.443Z,8.60
2019-05-16T18:21:24.523Z,6.22
2019-05-16T18:24:05.896Z,9.25
2019-05-16T18:26:46.412Z,9.58
2019-05-16T18:29:27.793Z,8.80
2019-05-16T18:32:08.438Z,7.87
2019-05-16T18:34:49.309Z,7.28
2019-05-16T18:37:33.239Z,8.85
2019-05-16T18:40:13.570Z,11.10
2019-05-16T18:42:57.080Z,11.57
2019-05-16T18:45:37.816Z,7.95
2019-05-16T18:48:19.104Z,8.00
2019-05-16T18:51:00.152Z,8.48
2019-05-16T18:53:41.029Z,7.92
2019-05-16T18:56:21.859Z,9.00
2019-05-16T18:59:03.318Z,10.35
2019-05-16T19:01:46.844Z,9.78
2019-05-16T19:04:27.155Z,10.08
2019-05-16T19:07:08.020Z,10.03
2019-05-16T19:09:49.198Z,11.70
2019-05-16T19:12:30.258Z,14.35
2019-05-16T19:15:10.726Z,9.78
2019-05-16T19:17:51.700Z,11.65
2019-05-16T19:20:32.529Z,10.05
2019-05-16T19:23:13.748Z,11.65
2019-05-16T19:25:56.499Z,15.72
2019-05-16T19:28:37.325Z,14.30
2019-05-16T19:34:03.961Z,11.85
2019-05-16T19:36:46.604Z,11.00
2019-05-16T19:39:28.766Z,18.20
2019-05-16T19:42:09.668Z,12.18
2019-05-16T19:44:51.090Z,10.95
2019-05-16T19:47:37.019Z,10.93
2019-05-16T19:50:14.640Z,12.55
2019-05-16T19:52:56.676Z,11.68
2019-05-16T19:55:38.027Z,23.27
2019-05-16T19:58:18.723Z,13.85
2019-05-16T20:00:59.290Z,12.03
2019-05-16T20:03:40.714Z,12.70
2019-05-16T20:06:21.912Z,13.50
2019-05-16T20:09:02.582Z,12.88
2019-05-16T20:11:46.239Z,14.18
2019-05-16T20:14:27.323Z,13.68
2019-05-16T20:17:08.885Z,15.13
2019-05-16T20:19:50.221Z,15.03
2019-05-16T20:22:31.169Z,14.18
2019-05-16T20:25:11.683Z,14.70
2019-05-16T20:27:52.143Z,13.20
2019-05-16T20:30:32.958Z,11.83
2019-05-16T20:33:13.565Z,12.33
2019-05-16T20:35:54.667Z,14.73
2019-05-16T20:41:18.469Z,13.28
2019-05-16T20:43:58.922Z,12.88
2019-05-16T20:46:39.636Z,12.70
2019-05-16T20:49:20.566Z,18.30
2019-05-16T20:52:01.075Z,13.62
2019-05-16T20:54:42.383Z,15.90
2019-05-16T20:57:26.638Z,14.30
2019-05-16T21:00:07.707Z,15.75
2019-05-16T21:02:49.498Z,13.78
2019-05-16T21:05:30.473Z,15.32
2019-05-16T21:07:59.463Z,15.65
2019-05-16T21:10:47.492Z,14.60
2019-05-16T21:16:42.788Z,15.53
2019-05-16T21:19:30.921Z,14.90
2019-05-16T21:25:13.061Z,17.90
2019-05-16T21:28:01.117Z,17.05
2019-05-16T21:30:49.184Z,17.05
2019-05-16T21:33:37.386Z,15.90
2019-05-16T21:36:27.407Z,15.75
2019-05-16T21:38:56.176Z,17.00
2019-05-16T21:41:44.226Z,16.25
2019-05-16T21:44:25.982Z,16.70
2019-05-16T21:47:07.516Z,16.67
2019-05-16T21:49:48.481Z,16.52
2019-05-16T21:52:29.810Z,20.27
2019-05-16T21:55:10.962Z,17.35
2019-05-16T21:57:51.382Z,16.45
2019-05-16T22:00:38.327Z,18.30
2019-05-16T22:03:19.535Z,18.23
2019-05-16T22:06:01.391Z,17.90
2019-05-16T22:08:42.305Z,18.85
2019-05-16T22:11:23.248Z,19.55
2019-05-16T22:14:06.394Z,22.37
2019-05-16T22:16:47.170Z,21.07
2019-05-16T22:19:16.493Z,17.65
2019-05-16T22:21:45.407Z,17.80
2019-05-16T22:24:14.387Z,19.25
2019-05-16T22:27:02.380Z,20.23
2019-05-16T22:29:50.448Z,18.92
2019-05-16T22:32:19.286Z,20.97
2019-05-16T22:35:07.982Z,23.73
2019-05-16T22:37:59.244Z,20.72
2019-05-16T22:40:46.107Z,20.57
2019-05-16T22:43:26.771Z,19.55
2019-05-16T22:46:09.978Z,19.80
2019-05-16T22:48:50.331Z,20.72
2019-05-16T22:51:38.457Z,19.25
2019-05-16T22:54:26.508Z,21.15
2019-05-16T22:56:57.168Z,18.90
2019-05-16T23:02:33.007Z,19.95
2019-05-16T23:05:21.168Z,19.42
2019-05-16T23:08:02.103Z,20.90
2019-05-16T23:10:20.317Z,22.82
2019-05-16T23:13:08.390Z,27.87
2019-05-16T23:15:57.187Z,21.17
2019-05-16T23:18:46.482Z,21.97
2019-05-16T23:24:41.646Z,24.65
2019-05-16T23:27:29.613Z,19.87
2019-05-16T23:30:17.612Z,22.32
2019-05-16T23:33:07.111Z,20.65
2019-05-16T23:38:49.319Z,22.70
2019-05-16T23:41:37.478Z,26.90
2019-05-16T23:44:18.471Z,21.25
2019-05-16T23:46:58.890Z,22.27
2019-05-16T23:49:39.279Z,20.50
2019-05-16T23:52:19.980Z,21.57
2019-05-16T23:55:01.023Z,21.65
2019-05-16T23:57:41.980Z,22.67
